sensor_id;sensor_type;location;lat;lon;timestamp;P1;durP1;ratioP1;P2;durP2;ratioP2
42682;SDS011;28293;50.930;3.464;2024-03-08T00:00:34;37.42;;;26.75;;
42682;SDS011;28293;50.930;3.464;2024-03-08T00:02:59;36.67;;;26.20;;
42682;SDS011;28293;50.930;3.464;2024-03-08T00:05:28;39.25;;;26.00;;
42682;SDS011;28293;50.930;3.464;2024-03-08T00:07:54;36.97;;;25.58;;
42682;SDS011;28293;50.930;3.464;2024-03-08T00:10:19;42.90;;;27.33;;
42682;SDS011;28293;50.930;3.464;2024-03-08T00:12:46;37.35;;;25.73;;
42682;SDS011;28293;50.930;3.464;2024-03-08T00:15:12;35.70;;;25.38;;
42682;SDS011;28293;50.930;3.464;2024-03-08T00:17:42;37.05;;;25.38;;
42682;SDS011;28293;50.930;3.464;2024-03-08T00:20:09;38.00;;;25.25;;
42682;SDS011;28293;50.930;3.464;2024-03-08T00:22:38;36.60;;;25.42;;
42682;SDS011;28293;50.930;3.464;2024-03-08T00:25:04;36.78;;;26.73;;
42682;SDS011;28293;50.930;3.464;2024-03-08T00:27:30;36.42;;;25.67;;
42682;SDS011;28293;50.930;3.464;2024-03-08T00:29:57;36.40;;;25.13;;
42682;SDS011;28293;50.930;3.464;2024-03-08T00:32:23;34.28;;;24.20;;
42682;SDS011;28293;50.930;3.464;2024-03-08T00:34:50;37.55;;;25.17;;
42682;SDS011;28293;50.930;3.464;2024-03-08T00:37:17;35.95;;;24.25;;
42682;SDS011;28293;50.930;3.464;2024-03-08T00:39:43;35.30;;;23.77;;
42682;SDS011;28293;50.930;3.464;2024-03-08T00:42:08;30.98;;;22.23;;
42682;SDS011;28293;50.930;3.464;2024-03-08T00:44:34;36.55;;;23.23;;
42682;SDS011;28293;50.930;3.464;2024-03-08T00:47:00;35.20;;;25.02;;
42682;SDS011;28293;50.930;3.464;2024-03-08T00:49:25;34.95;;;23.45;;
42682;SDS011;28293;50.930;3.464;2024-03-08T00:51:51;36.22;;;24.30;;
42682;SDS011;28293;50.930;3.464;2024-03-08T00:54:17;35.33;;;24.52;;
42682;SDS011;28293;50.930;3.464;2024-03-08T00:56:42;35.00;;;23.90;;
42682;SDS011;28293;50.930;3.464;2024-03-08T00:59:08;33.22;;;23.20;;
42682;SDS011;28293;50.930;3.464;2024-03-08T01:01:33;37.78;;;23.77;;
42682;SDS011;28293;50.930;3.464;2024-03-08T01:03:59;36.20;;;22.70;;
42682;SDS011;28293;50.930;3.464;2024-03-08T01:06:25;35.03;;;22.88;;
42682;SDS011;28293;50.930;3.464;2024-03-08T01:08:51;35.17;;;23.38;;
42682;SDS011;28293;50.930;3.464;2024-03-08T01:11:17;36.85;;;24.85;;
42682;SDS011;28293;50.930;3.464;2024-03-08T01:13:44;36.53;;;23.40;;
42682;SDS011;28293;50.930;3.464;2024-03-08T01:16:12;34.85;;;22.42;;
42682;SDS011;28293;50.930;3.464;2024-03-08T01:18:38;37.53;;;23.90;;
42682;SDS011;28293;50.930;3.464;2024-03-08T01:21:04;29.92;;;21.63;;
42682;SDS011;28293;50.930;3.464;2024-03-08T01:23:29;33.15;;;22.80;;
42682;SDS011;28293;50.930;3.464;2024-03-08T01:25:55;33.42;;;24.38;;
42682;SDS011;28293;50.930;3.464;2024-03-08T01:28:24;36.90;;;23.55;;
42682;SDS011;28293;50.930;3.464;2024-03-08T01:30:50;36.92;;;24.75;;
42682;SDS011;28293;50.930;3.464;2024-03-08T01:33:21;37.13;;;24.02;;
42682;SDS011;28293;50.930;3.464;2024-03-08T01:35:51;35.95;;;23.45;;
42682;SDS011;28293;50.930;3.464;2024-03-08T01:38:18;37.30;;;24.30;;
42682;SDS011;28293;50.930;3.464;2024-03-08T01:40:44;35.63;;;23.30;;
42682;SDS011;28293;50.930;3.464;2024-03-08T01:45:52;35.45;;;23.73;;
42682;SDS011;28293;50.930;3.464;2024-03-08T01:48:18;37.45;;;24.23;;
42682;SDS011;28293;50.930;3.464;2024-03-08T01:50:47;37.88;;;23.58;;
42682;SDS011;28293;50.930;3.464;2024-03-08T01:53:12;40.95;;;25.77;;
42682;SDS011;28293;50.930;3.464;2024-03-08T01:55:40;39.22;;;25.40;;
42682;SDS011;28293;50.930;3.464;2024-03-08T01:58:06;36.67;;;25.27;;
42682;SDS011;28293;50.930;3.464;2024-03-08T02:00:35;39.17;;;26.00;;
42682;SDS011;28293;50.930;3.464;2024-03-08T02:03:03;39.85;;;25.88;;
42682;SDS011;28293;50.930;3.464;2024-03-08T02:05:29;40.20;;;25.85;;
42682;SDS011;28293;50.930;3.464;2024-03-08T02:07:55;40.58;;;26.05;;
42682;SDS011;28293;50.930;3.464;2024-03-08T02:10:22;41.13;;;26.63;;
42682;SDS011;28293;50.930;3.464;2024-03-08T02:12:47;41.05;;;26.65;;
42682;SDS011;28293;50.930;3.464;2024-03-08T02:15:14;45.83;;;27.20;;
42682;SDS011;28293;50.930;3.464;2024-03-08T02:17:40;43.67;;;28.08;;
42682;SDS011;28293;50.930;3.464;2024-03-08T02:20:06;41.55;;;27.42;;
42682;SDS011;28293;50.930;3.464;2024-03-08T02:22:34;40.30;;;26.58;;
42682;SDS011;28293;50.930;3.464;2024-03-08T02:25:00;43.42;;;27.75;;
42682;SDS011;28293;50.930;3.464;2024-03-08T02:27:28;43.58;;;27.95;;
42682;SDS011;28293;50.930;3.464;2024-03-08T02:29:55;42.97;;;28.02;;
42682;SDS011;28293;50.930;3.464;2024-03-08T02:32:22;47.72;;;28.83;;
42682;SDS011;28293;50.930;3.464;2024-03-08T02:34:50;43.67;;;27.95;;
42682;SDS011;28293;50.930;3.464;2024-03-08T02:37:16;44.97;;;28.67;;
42682;SDS011;28293;50.930;3.464;2024-03-08T02:39:42;44.38;;;28.63;;
42682;SDS011;28293;50.930;3.464;2024-03-08T02:42:08;41.85;;;27.95;;
42682;SDS011;28293;50.930;3.464;2024-03-08T02:44:34;46.45;;;29.52;;
42682;SDS011;28293;50.930;3.464;2024-03-08T02:47:00;42.95;;;29.58;;
42682;SDS011;28293;50.930;3.464;2024-03-08T02:49:26;45.92;;;29.80;;
42682;SDS011;28293;50.930;3.464;2024-03-08T02:51:52;46.22;;;30.10;;
42682;SDS011;28293;50.930;3.464;2024-03-08T02:54:18;45.25;;;29.02;;
42682;SDS011;28293;50.930;3.464;2024-03-08T02:56:44;45.72;;;29.08;;
42682;SDS011;28293;50.930;3.464;2024-03-08T02:59:16;46.50;;;29.77;;
42682;SDS011;28293;50.930;3.464;2024-03-08T03:01:42;45.70;;;30.25;;
42682;SDS011;28293;50.930;3.464;2024-03-08T03:04:08;48.50;;;30.52;;
42682;SDS011;28293;50.930;3.464;2024-03-08T03:06:34;45.05;;;29.50;;
42682;SDS011;28293;50.930;3.464;2024-03-08T03:09:00;49.70;;;30.90;;
42682;SDS011;28293;50.930;3.464;2024-03-08T03:11:26;43.97;;;29.27;;
42682;SDS011;28293;50.930;3.464;2024-03-08T03:13:52;46.40;;;30.45;;
42682;SDS011;28293;50.930;3.464;2024-03-08T03:16:21;47.28;;;30.48;;
42682;SDS011;28293;50.930;3.464;2024-03-08T03:18:47;48.95;;;31.45;;
42682;SDS011;28293;50.930;3.464;2024-03-08T03:21:13;46.83;;;30.33;;
42682;SDS011;28293;50.930;3.464;2024-03-08T03:23:41;50.90;;;29.75;;
42682;SDS011;28293;50.930;3.464;2024-03-08T03:26:07;46.97;;;30.58;;
42682;SDS011;28293;50.930;3.464;2024-03-08T03:28:35;43.47;;;30.42;;
42682;SDS011;28293;50.930;3.464;2024-03-08T03:31:04;44.97;;;30.60;;
42682;SDS011;28293;50.930;3.464;2024-03-08T03:33:34;47.85;;;31.63;;
42682;SDS011;28293;50.930;3.464;2024-03-08T03:36:02;45.42;;;30.75;;
42682;SDS011;28293;50.930;3.464;2024-03-08T03:38:30;46.55;;;30.80;;
42682;SDS011;28293;50.930;3.464;2024-03-08T03:40:55;47.58;;;32.28;;
42682;SDS011;28293;50.930;3.464;2024-03-08T03:43:23;47.50;;;30.70;;
42682;SDS011;28293;50.930;3.464;2024-03-08T03:45:48;47.55;;;32.28;;
42682;SDS011;28293;50.930;3.464;2024-03-08T03:48:14;48.90;;;31.90;;
42682;SDS011;28293;50.930;3.464;2024-03-08T03:50:40;45.10;;;31.38;;
42682;SDS011;28293;50.930;3.464;2024-03-08T03:53:06;46.33;;;32.60;;
42682;SDS011;28293;50.930;3.464;2024-03-08T03:55:33;45.85;;;32.25;;
42682;SDS011;28293;50.930;3.464;2024-03-08T03:57:59;47.10;;;31.40;;
42682;SDS011;28293;50.930;3.464;2024-03-08T04:00:26;48.28;;;31.98;;
42682;SDS011;28293;50.930;3.464;2024-03-08T04:02:52;45.72;;;32.05;;
42682;SDS011;28293;50.930;3.464;2024-03-08T04:05:18;48.72;;;33.42;;
42682;SDS011;28293;50.930;3.464;2024-03-08T04:07:43;46.70;;;31.65;;
42682;SDS011;28293;50.930;3.464;2024-03-08T04:10:10;45.25;;;31.33;;
42682;SDS011;28293;50.930;3.464;2024-03-08T04:12:36;45.72;;;32.10;;
42682;SDS011;28293;50.930;3.464;2024-03-08T04:15:03;44.65;;;32.42;;
42682;SDS011;28293;50.930;3.464;2024-03-08T04:17:32;50.22;;;34.72;;
42682;SDS011;28293;50.930;3.464;2024-03-08T04:20:02;50.00;;;32.13;;
42682;SDS011;28293;50.930;3.464;2024-03-08T04:22:34;46.58;;;32.13;;
42682;SDS011;28293;50.930;3.464;2024-03-08T04:25:00;47.42;;;34.05;;
42682;SDS011;28293;50.930;3.464;2024-03-08T04:27:27;48.30;;;33.97;;
42682;SDS011;28293;50.930;3.464;2024-03-08T04:29:52;48.92;;;33.10;;
42682;SDS011;28293;50.930;3.464;2024-03-08T04:32:18;48.97;;;32.88;;
42682;SDS011;28293;50.930;3.464;2024-03-08T04:34:44;52.03;;;34.80;;
42682;SDS011;28293;50.930;3.464;2024-03-08T04:37:09;49.35;;;34.60;;
42682;SDS011;28293;50.930;3.464;2024-03-08T04:39:38;48.65;;;32.45;;
42682;SDS011;28293;50.930;3.464;2024-03-08T04:42:04;48.13;;;34.45;;
42682;SDS011;28293;50.930;3.464;2024-03-08T04:44:34;48.10;;;33.65;;
42682;SDS011;28293;50.930;3.464;2024-03-08T04:47:01;47.85;;;33.97;;
42682;SDS011;28293;50.930;3.464;2024-03-08T04:49:27;49.83;;;34.20;;
42682;SDS011;28293;50.930;3.464;2024-03-08T04:51:53;47.70;;;34.00;;
42682;SDS011;28293;50.930;3.464;2024-03-08T04:54:18;49.35;;;35.25;;
42682;SDS011;28293;50.930;3.464;2024-03-08T04:56:44;46.92;;;32.97;;
42682;SDS011;28293;50.930;3.464;2024-03-08T04:59:10;48.13;;;34.45;;
42682;SDS011;28293;50.930;3.464;2024-03-08T05:01:36;49.70;;;35.50;;
42682;SDS011;28293;50.930;3.464;2024-03-08T05:04:03;47.47;;;35.42;;
42682;SDS011;28293;50.930;3.464;2024-03-08T05:06:29;48.67;;;33.45;;
42682;SDS011;28293;50.930;3.464;2024-03-08T05:08:55;53.08;;;34.72;;
42682;SDS011;28293;50.930;3.464;2024-03-08T05:11:21;47.70;;;33.58;;
42682;SDS011;28293;50.930;3.464;2024-03-08T05:13:46;52.63;;;35.25;;
42682;SDS011;28293;50.930;3.464;2024-03-08T05:16:12;48.60;;;34.25;;
42682;SDS011;28293;50.930;3.464;2024-03-08T05:18:40;49.10;;;34.28;;
42682;SDS011;28293;50.930;3.464;2024-03-08T05:21:07;49.65;;;35.00;;
42682;SDS011;28293;50.930;3.464;2024-03-08T05:23:34;48.55;;;35.15;;
42682;SDS011;28293;50.930;3.464;2024-03-08T05:26:00;46.50;;;33.67;;
42682;SDS011;28293;50.930;3.464;2024-03-08T05:28:26;49.55;;;35.47;;
42682;SDS011;28293;50.930;3.464;2024-03-08T05:30:51;47.15;;;34.63;;
42682;SDS011;28293;50.930;3.464;2024-03-08T05:33:17;47.47;;;34.60;;
42682;SDS011;28293;50.930;3.464;2024-03-08T05:35:44;51.22;;;35.47;;
42682;SDS011;28293;50.930;3.464;2024-03-08T05:38:10;48.97;;;33.42;;
42682;SDS011;28293;50.930;3.464;2024-03-08T05:40:37;51.28;;;37.08;;
42682;SDS011;28293;50.930;3.464;2024-03-08T05:43:03;47.60;;;35.38;;
42682;SDS011;28293;50.930;3.464;2024-03-08T05:45:30;50.80;;;35.10;;
42682;SDS011;28293;50.930;3.464;2024-03-08T05:47:56;49.30;;;36.22;;
42682;SDS011;28293;50.930;3.464;2024-03-08T05:50:21;51.42;;;34.78;;
42682;SDS011;28293;50.930;3.464;2024-03-08T05:52:47;50.83;;;35.97;;
42682;SDS011;28293;50.930;3.464;2024-03-08T05:55:13;50.28;;;36.75;;
42682;SDS011;28293;50.930;3.464;2024-03-08T05:57:39;51.63;;;37.47;;
42682;SDS011;28293;50.930;3.464;2024-03-08T06:00:07;53.13;;;35.40;;
42682;SDS011;28293;50.930;3.464;2024-03-08T06:02:35;48.53;;;35.53;;
42682;SDS011;28293;50.930;3.464;2024-03-08T06:05:06;50.65;;;35.08;;
42682;SDS011;28293;50.930;3.464;2024-03-08T06:07:35;46.60;;;33.60;;
42682;SDS011;28293;50.930;3.464;2024-03-08T06:10:05;46.85;;;33.90;;
42682;SDS011;28293;50.930;3.464;2024-03-08T06:12:34;47.67;;;34.25;;
42682;SDS011;28293;50.930;3.464;2024-03-08T06:15:05;47.10;;;34.88;;
42682;SDS011;28293;50.930;3.464;2024-03-08T06:17:31;47.95;;;34.80;;
42682;SDS011;28293;50.930;3.464;2024-03-08T06:19:57;49.08;;;34.88;;
42682;SDS011;28293;50.930;3.464;2024-03-08T06:22:23;49.97;;;35.03;;
42682;SDS011;28293;50.930;3.464;2024-03-08T06:24:48;48.97;;;35.00;;
42682;SDS011;28293;50.930;3.464;2024-03-08T06:27:15;49.75;;;35.03;;
42682;SDS011;28293;50.930;3.464;2024-03-08T06:29:42;55.30;;;36.97;;
42682;SDS011;28293;50.930;3.464;2024-03-08T06:32:08;53.90;;;36.95;;
42682;SDS011;28293;50.930;3.464;2024-03-08T06:34:33;52.15;;;35.47;;
42682;SDS011;28293;50.930;3.464;2024-03-08T06:37:02;48.05;;;35.22;;
42682;SDS011;28293;50.930;3.464;2024-03-08T06:39:28;49.10;;;36.05;;
42682;SDS011;28293;50.930;3.464;2024-03-08T06:41:57;47.28;;;32.85;;
42682;SDS011;28293;50.930;3.464;2024-03-08T06:44:23;47.58;;;35.13;;
42682;SDS011;28293;50.930;3.464;2024-03-08T06:46:48;51.65;;;36.20;;
42682;SDS011;28293;50.930;3.464;2024-03-08T06:49:15;47.15;;;35.75;;
42682;SDS011;28293;50.930;3.464;2024-03-08T06:51:41;49.20;;;35.42;;
42682;SDS011;28293;50.930;3.464;2024-03-08T06:54:07;49.65;;;35.67;;
42682;SDS011;28293;50.930;3.464;2024-03-08T06:56:36;48.13;;;34.58;;
42682;SDS011;28293;50.930;3.464;2024-03-08T06:59:03;50.08;;;34.92;;
42682;SDS011;28293;50.930;3.464;2024-03-08T07:01:29;46.42;;;33.45;;
42682;SDS011;28293;50.930;3.464;2024-03-08T07:03:59;46.33;;;33.17;;
42682;SDS011;28293;50.930;3.464;2024-03-08T07:06:27;47.67;;;33.58;;
42682;SDS011;28293;50.930;3.464;2024-03-08T07:08:53;48.83;;;33.92;;
42682;SDS011;28293;50.930;3.464;2024-03-08T07:11:19;48.33;;;33.83;;
42682;SDS011;28293;50.930;3.464;2024-03-08T07:13:45;47.42;;;33.40;;
42682;SDS011;28293;50.930;3.464;2024-03-08T07:16:11;44.65;;;32.35;;
42682;SDS011;28293;50.930;3.464;2024-03-08T07:18:37;46.03;;;33.25;;
42682;SDS011;28293;50.930;3.464;2024-03-08T07:21:08;44.33;;;32.97;;
42682;SDS011;28293;50.930;3.464;2024-03-08T07:23:36;44.30;;;33.03;;
42682;SDS011;28293;50.930;3.464;2024-03-08T07:26:14;48.42;;;32.90;;
42682;SDS011;28293;50.930;3.464;2024-03-08T07:28:41;45.97;;;33.65;;
42682;SDS011;28293;50.930;3.464;2024-03-08T07:31:07;43.47;;;32.97;;
42682;SDS011;28293;50.930;3.464;2024-03-08T07:33:50;45.38;;;32.10;;
42682;SDS011;28293;50.930;3.464;2024-03-08T07:36:18;45.88;;;33.83;;
42682;SDS011;28293;50.930;3.464;2024-03-08T07:38:44;44.05;;;32.40;;
42682;SDS011;28293;50.930;3.464;2024-03-08T07:41:12;43.78;;;32.40;;
42682;SDS011;28293;50.930;3.464;2024-03-08T07:43:38;46.50;;;33.63;;
42682;SDS011;28293;50.930;3.464;2024-03-08T07:46:03;46.17;;;33.15;;
42682;SDS011;28293;50.930;3.464;2024-03-08T07:48:29;44.58;;;33.20;;
42682;SDS011;28293;50.930;3.464;2024-03-08T07:50:55;46.80;;;33.55;;
42682;SDS011;28293;50.930;3.464;2024-03-08T07:53:21;45.80;;;31.60;;
42682;SDS011;28293;50.930;3.464;2024-03-08T07:55:49;47.15;;;33.80;;
42682;SDS011;28293;50.930;3.464;2024-03-08T07:58:15;42.90;;;31.13;;
42682;SDS011;28293;50.930;3.464;2024-03-08T08:00:42;42.58;;;31.10;;
42682;SDS011;28293;50.930;3.464;2024-03-08T08:03:08;43.92;;;32.20;;
42682;SDS011;28293;50.930;3.464;2024-03-08T08:05:34;45.22;;;32.25;;
42682;SDS011;28293;50.930;3.464;2024-03-08T08:08:04;44.90;;;31.55;;
42682;SDS011;28293;50.930;3.464;2024-03-08T08:10:31;42.30;;;30.60;;
42682;SDS011;28293;50.930;3.464;2024-03-08T08:12:58;42.75;;;31.08;;
42682;SDS011;28293;50.930;3.464;2024-03-08T08:15:24;41.80;;;30.77;;
42682;SDS011;28293;50.930;3.464;2024-03-08T08:17:49;41.25;;;31.67;;
42682;SDS011;28293;50.930;3.464;2024-03-08T08:20:18;42.47;;;31.35;;
42682;SDS011;28293;50.930;3.464;2024-03-08T08:22:44;44.20;;;31.70;;
42682;SDS011;28293;50.930;3.464;2024-03-08T08:25:09;42.40;;;30.50;;
42682;SDS011;28293;50.930;3.464;2024-03-08T08:27:38;42.50;;;30.70;;
42682;SDS011;28293;50.930;3.464;2024-03-08T08:30:10;43.92;;;31.98;;
42682;SDS011;28293;50.930;3.464;2024-03-08T08:32:36;41.40;;;30.05;;
42682;SDS011;28293;50.930;3.464;2024-03-08T08:35:03;38.53;;;29.20;;
42682;SDS011;28293;50.930;3.464;2024-03-08T08:37:30;40.10;;;30.05;;
42682;SDS011;28293;50.930;3.464;2024-03-08T08:39:56;39.92;;;30.23;;
42682;SDS011;28293;50.930;3.464;2024-03-08T08:42:22;36.47;;;27.60;;
42682;SDS011;28293;50.930;3.464;2024-03-08T08:44:48;39.35;;;28.45;;
42682;SDS011;28293;50.930;3.464;2024-03-08T08:47:15;39.65;;;29.00;;
42682;SDS011;28293;50.930;3.464;2024-03-08T08:49:43;39.55;;;29.95;;
42682;SDS011;28293;50.930;3.464;2024-03-08T08:52:11;40.80;;;30.35;;
42682;SDS011;28293;50.930;3.464;2024-03-08T08:54:37;38.75;;;28.13;;
42682;SDS011;28293;50.930;3.464;2024-03-08T08:57:03;37.95;;;27.88;;
42682;SDS011;28293;50.930;3.464;2024-03-08T08:59:32;38.33;;;28.00;;
42682;SDS011;28293;50.930;3.464;2024-03-08T09:02:01;38.38;;;27.60;;
42682;SDS011;28293;50.930;3.464;2024-03-08T09:04:28;38.53;;;28.52;;
42682;SDS011;28293;50.930;3.464;2024-03-08T09:06:56;37.90;;;27.88;;
42682;SDS011;28293;50.930;3.464;2024-03-08T09:09:22;37.58;;;28.42;;
42682;SDS011;28293;50.930;3.464;2024-03-08T09:11:48;36.85;;;28.50;;
42682;SDS011;28293;50.930;3.464;2024-03-08T09:14:14;36.17;;;27.40;;
42682;SDS011;28293;50.930;3.464;2024-03-08T09:16:40;40.95;;;28.00;;
42682;SDS011;28293;50.930;3.464;2024-03-08T09:19:06;36.67;;;28.13;;
42682;SDS011;28293;50.930;3.464;2024-03-08T09:21:32;37.78;;;28.02;;
42682;SDS011;28293;50.930;3.464;2024-03-08T09:24:00;34.67;;;26.58;;
42682;SDS011;28293;50.930;3.464;2024-03-08T09:26:26;35.42;;;27.58;;
42682;SDS011;28293;50.930;3.464;2024-03-08T09:28:52;34.45;;;25.45;;
42682;SDS011;28293;50.930;3.464;2024-03-08T09:31:19;35.20;;;27.40;;
42682;SDS011;28293;50.930;3.464;2024-03-08T09:33:45;35.05;;;27.20;;
42682;SDS011;28293;50.930;3.464;2024-03-08T09:36:11;36.28;;;26.05;;
42682;SDS011;28293;50.930;3.464;2024-03-08T09:38:39;37.70;;;27.95;;
42682;SDS011;28293;50.930;3.464;2024-03-08T09:41:05;35.25;;;27.70;;
42682;SDS011;28293;50.930;3.464;2024-03-08T09:43:31;33.55;;;25.67;;
42682;SDS011;28293;50.930;3.464;2024-03-08T09:45:57;36.25;;;27.80;;
42682;SDS011;28293;50.930;3.464;2024-03-08T09:48:23;36.97;;;27.85;;
42682;SDS011;28293;50.930;3.464;2024-03-08T09:50:51;35.50;;;27.00;;
42682;SDS011;28293;50.930;3.464;2024-03-08T09:53:16;34.13;;;27.17;;
42682;SDS011;28293;50.930;3.464;2024-03-08T09:55:43;33.45;;;26.33;;
42682;SDS011;28293;50.930;3.464;2024-03-08T09:58:11;32.15;;;24.80;;
42682;SDS011;28293;50.930;3.464;2024-03-08T10:00:46;34.83;;;26.00;;
42682;SDS011;28293;50.930;3.464;2024-03-08T10:03:12;33.05;;;26.05;;
42682;SDS011;28293;50.930;3.464;2024-03-08T10:05:40;33.55;;;25.45;;
42682;SDS011;28293;50.930;3.464;2024-03-08T10:08:07;32.92;;;25.50;;
42682;SDS011;28293;50.930;3.464;2024-03-08T10:10:36;31.15;;;25.10;;
42682;SDS011;28293;50.930;3.464;2024-03-08T10:13:08;31.08;;;25.00;;
42682;SDS011;28293;50.930;3.464;2024-03-08T10:15:35;33.45;;;25.27;;
42682;SDS011;28293;50.930;3.464;2024-03-08T10:18:05;33.28;;;25.20;;
42682;SDS011;28293;50.930;3.464;2024-03-08T10:20:32;34.50;;;26.27;;
42682;SDS011;28293;50.930;3.464;2024-03-08T10:23:01;32.63;;;24.17;;
42682;SDS011;28293;50.930;3.464;2024-03-08T10:25:30;32.83;;;24.75;;
42682;SDS011;28293;50.930;3.464;2024-03-08T10:27:56;32.53;;;24.25;;
42682;SDS011;28293;50.930;3.464;2024-03-08T10:30:22;34.05;;;24.80;;
42682;SDS011;28293;50.930;3.464;2024-03-08T10:32:48;33.53;;;23.60;;
42682;SDS011;28293;50.930;3.464;2024-03-08T10:35:14;31.92;;;23.25;;
42682;SDS011;28293;50.930;3.464;2024-03-08T10:37:45;31.27;;;24.55;;
42682;SDS011;28293;50.930;3.464;2024-03-08T10:40:15;33.20;;;23.98;;
42682;SDS011;28293;50.930;3.464;2024-03-08T10:50:48;30.90;;;23.58;;
42682;SDS011;28293;50.930;3.464;2024-03-08T10:53:16;31.58;;;24.17;;
42682;SDS011;28293;50.930;3.464;2024-03-08T10:55:43;32.47;;;24.35;;
42682;SDS011;28293;50.930;3.464;2024-03-08T10:58:10;33.22;;;24.55;;
42682;SDS011;28293;50.930;3.464;2024-03-08T11:00:36;31.35;;;23.70;;
42682;SDS011;28293;50.930;3.464;2024-03-08T11:03:02;29.60;;;23.77;;
42682;SDS011;28293;50.930;3.464;2024-03-08T11:05:35;30.30;;;23.55;;
42682;SDS011;28293;50.930;3.464;2024-03-08T11:10:47;28.38;;;22.60;;
42682;SDS011;28293;50.930;3.464;2024-03-08T11:16:36;29.60;;;23.77;;
42682;SDS011;28293;50.930;3.464;2024-03-08T11:21:36;30.25;;;22.08;;
42682;SDS011;28293;50.930;3.464;2024-03-08T11:24:08;28.50;;;22.67;;
42682;SDS011;28293;50.930;3.464;2024-03-08T11:26:41;28.20;;;21.88;;
42682;SDS011;28293;50.930;3.464;2024-03-08T11:32:04;27.67;;;21.55;;
42682;SDS011;28293;50.930;3.464;2024-03-08T11:34:37;28.20;;;21.30;;
42682;SDS011;28293;50.930;3.464;2024-03-08T11:37:05;29.25;;;22.10;;
42682;SDS011;28293;50.930;3.464;2024-03-08T11:39:49;28.92;;;23.00;;
42682;SDS011;28293;50.930;3.464;2024-03-08T11:42:17;28.33;;;23.03;;
42682;SDS011;28293;50.930;3.464;2024-03-08T11:44:43;29.95;;;22.40;;
42682;SDS011;28293;50.930;3.464;2024-03-08T11:47:10;29.77;;;23.58;;
42682;SDS011;28293;50.930;3.464;2024-03-08T11:49:36;29.85;;;22.20;;
42682;SDS011;28293;50.930;3.464;2024-03-08T11:52:03;29.33;;;22.08;;
42682;SDS011;28293;50.930;3.464;2024-03-08T11:54:29;27.40;;;21.63;;
42682;SDS011;28293;50.930;3.464;2024-03-08T11:56:55;28.13;;;22.75;;
42682;SDS011;28293;50.930;3.464;2024-03-08T11:59:30;29.35;;;22.60;;
42682;SDS011;28293;50.930;3.464;2024-03-08T12:02:06;29.85;;;22.85;;
42682;SDS011;28293;50.930;3.464;2024-03-08T12:04:35;28.70;;;22.15;;
42682;SDS011;28293;50.930;3.464;2024-03-08T12:07:01;28.55;;;22.15;;
42682;SDS011;28293;50.930;3.464;2024-03-08T12:09:30;29.10;;;22.58;;
42682;SDS011;28293;50.930;3.464;2024-03-08T12:11:58;29.23;;;22.63;;
42682;SDS011;28293;50.930;3.464;2024-03-08T12:14:24;30.00;;;21.85;;
42682;SDS011;28293;50.930;3.464;2024-03-08T12:16:50;26.52;;;21.05;;
42682;SDS011;28293;50.930;3.464;2024-03-08T12:19:17;24.75;;;20.83;;
42682;SDS011;28293;50.930;3.464;2024-03-08T12:21:43;30.92;;;23.40;;
42682;SDS011;28293;50.930;3.464;2024-03-08T12:24:14;27.40;;;21.67;;
42682;SDS011;28293;50.930;3.464;2024-03-08T12:26:44;28.33;;;22.48;;
42682;SDS011;28293;50.930;3.464;2024-03-08T12:29:14;26.00;;;20.63;;
42682;SDS011;28293;50.930;3.464;2024-03-08T12:34:11;27.23;;;20.77;;
42682;SDS011;28293;50.930;3.464;2024-03-08T12:36:43;28.98;;;21.30;;
42682;SDS011;28293;50.930;3.464;2024-03-08T12:39:12;28.15;;;21.77;;
42682;SDS011;28293;50.930;3.464;2024-03-08T12:41:41;30.10;;;21.60;;
42682;SDS011;28293;50.930;3.464;2024-03-08T12:44:07;28.67;;;21.58;;
42682;SDS011;28293;50.930;3.464;2024-03-08T12:46:36;26.70;;;20.52;;
42682;SDS011;28293;50.930;3.464;2024-03-08T12:49:06;31.95;;;21.55;;
42682;SDS011;28293;50.930;3.464;2024-03-08T12:51:32;28.95;;;21.05;;
42682;SDS011;28293;50.930;3.464;2024-03-08T12:53:58;32.20;;;21.25;;
42682;SDS011;28293;50.930;3.464;2024-03-08T12:56:34;29.45;;;21.63;;
42682;SDS011;28293;50.930;3.464;2024-03-08T12:59:02;27.88;;;21.00;;
42682;SDS011;28293;50.930;3.464;2024-03-08T13:01:29;26.52;;;21.00;;
42682;SDS011;28293;50.930;3.464;2024-03-08T13:03:58;27.38;;;21.50;;
42682;SDS011;28293;50.930;3.464;2024-03-08T13:06:26;28.60;;;21.38;;
42682;SDS011;28293;50.930;3.464;2024-03-08T13:08:54;30.50;;;20.40;;
42682;SDS011;28293;50.930;3.464;2024-03-08T13:11:30;27.85;;;21.05;;
42682;SDS011;28293;50.930;3.464;2024-03-08T13:14:01;28.08;;;20.40;;
42682;SDS011;28293;50.930;3.464;2024-03-08T13:16:35;25.02;;;20.73;;
42682;SDS011;28293;50.930;3.464;2024-03-08T13:19:01;26.80;;;20.88;;
42682;SDS011;28293;50.930;3.464;2024-03-08T13:21:26;27.80;;;21.42;;
42682;SDS011;28293;50.930;3.464;2024-03-08T13:23:52;25.73;;;19.92;;
42682;SDS011;28293;50.930;3.464;2024-03-08T13:26:18;26.65;;;20.70;;
42682;SDS011;28293;50.930;3.464;2024-03-08T13:28:47;27.80;;;20.55;;
42682;SDS011;28293;50.930;3.464;2024-03-08T13:31:18;26.10;;;20.92;;
42682;SDS011;28293;50.930;3.464;2024-03-08T13:33:47;25.70;;;19.75;;
42682;SDS011;28293;50.930;3.464;2024-03-08T13:36:13;26.60;;;19.58;;
42682;SDS011;28293;50.930;3.464;2024-03-08T13:38:43;27.35;;;20.10;;
42682;SDS011;28293;50.930;3.464;2024-03-08T13:41:13;25.58;;;19.67;;
42682;SDS011;28293;50.930;3.464;2024-03-08T13:43:42;25.55;;;19.33;;
42682;SDS011;28293;50.930;3.464;2024-03-08T13:46:14;26.48;;;19.35;;
42682;SDS011;28293;50.930;3.464;2024-03-08T13:48:39;26.67;;;20.77;;
42682;SDS011;28293;50.930;3.464;2024-03-08T13:51:06;25.77;;;19.63;;
42682;SDS011;28293;50.930;3.464;2024-03-08T13:53:33;26.42;;;19.48;;
42682;SDS011;28293;50.930;3.464;2024-03-08T13:56:00;26.30;;;20.60;;
42682;SDS011;28293;50.930;3.464;2024-03-08T13:58:26;27.85;;;20.70;;
42682;SDS011;28293;50.930;3.464;2024-03-08T14:00:52;26.98;;;20.20;;
42682;SDS011;28293;50.930;3.464;2024-03-08T14:03:18;26.63;;;20.92;;
42682;SDS011;28293;50.930;3.464;2024-03-08T14:05:43;25.95;;;20.35;;
42682;SDS011;28293;50.930;3.464;2024-03-08T14:08:10;26.33;;;20.33;;
42682;SDS011;28293;50.930;3.464;2024-03-08T14:10:37;25.10;;;19.70;;
42682;SDS011;28293;50.930;3.464;2024-03-08T14:13:03;24.92;;;19.15;;
42682;SDS011;28293;50.930;3.464;2024-03-08T14:15:32;23.98;;;19.20;;
42682;SDS011;28293;50.930;3.464;2024-03-08T14:17:59;26.63;;;20.67;;
42682;SDS011;28293;50.930;3.464;2024-03-08T14:20:26;25.92;;;20.48;;
42682;SDS011;28293;50.930;3.464;2024-03-08T14:22:53;24.80;;;20.20;;
42682;SDS011;28293;50.930;3.464;2024-03-08T14:25:21;24.42;;;19.88;;
42682;SDS011;28293;50.930;3.464;2024-03-08T14:27:51;26.13;;;20.25;;
42682;SDS011;28293;50.930;3.464;2024-03-08T14:30:23;24.33;;;19.48;;
42682;SDS011;28293;50.930;3.464;2024-03-08T14:33:03;24.73;;;20.25;;
42682;SDS011;28293;50.930;3.464;2024-03-08T14:35:36;27.00;;;19.83;;
42682;SDS011;28293;50.930;3.464;2024-03-08T14:38:03;25.30;;;19.85;;
42682;SDS011;28293;50.930;3.464;2024-03-08T14:40:29;24.55;;;19.42;;
42682;SDS011;28293;50.930;3.464;2024-03-08T14:42:55;25.15;;;19.20;;
42682;SDS011;28293;50.930;3.464;2024-03-08T14:45:22;24.27;;;19.52;;